createdAt,value
2023-03-17T00:01:17.625Z,14.50
2023-03-17T00:03:46.856Z,8.50
2023-03-17T00:06:16.300Z,12.00
2023-03-17T00:08:46.339Z,7.75
2023-03-17T00:11:15.033Z,6.00
2023-03-17T00:13:43.726Z,11.50
2023-03-17T00:16:14.764Z,7.00
2023-03-17T00:18:44.836Z,11.60
2023-03-17T00:21:14.893Z,9.20
2023-03-17T00:23:43.084Z,11.20
2023-03-17T00:26:11.570Z,10.00
2023-03-17T00:28:39.950Z,8.80
2023-03-17T00:31:13.401Z,9.80
2023-03-17T00:33:41.922Z,9.20
2023-03-17T00:36:14.036Z,12.00
2023-03-17T00:38:42.177Z,9.00
2023-03-17T00:41:11.128Z,8.20
2023-03-17T00:43:39.450Z,13.00
2023-03-17T00:46:11.402Z,10.00
2023-03-17T00:48:40.644Z,7.50
2023-03-17T00:51:08.805Z,2.00
2023-03-17T00:53:38.360Z,4.50
2023-03-17T00:56:12.056Z,11.20
2023-03-17T00:58:40.290Z,10.80
2023-03-17T01:01:08.787Z,9.60
2023-03-17T01:03:37.091Z,10.60
2023-03-17T01:06:06.604Z,7.50
2023-03-17T01:08:35.038Z,10.60
2023-03-17T01:11:04.675Z,12.60
2023-03-17T01:13:32.750Z,6.50
2023-03-17T01:16:01.284Z,12.40
2023-03-17T01:18:29.428Z,6.25
2023-03-17T01:20:57.487Z,13.40
2023-03-17T01:23:26.657Z,6.00
2023-03-17T01:25:54.963Z,6.25
2023-03-17T01:28:24.742Z,10.80
2023-03-17T01:30:53.052Z,9.40
2023-03-17T01:33:21.297Z,12.00
2023-03-17T01:35:49.452Z,7.00
2023-03-17T01:38:17.720Z,7.40
2023-03-17T01:40:48.141Z,7.00
2023-03-17T01:43:21.597Z,5.60
2023-03-17T01:46:09.732Z,13.00
2023-03-17T01:48:40.405Z,12.20
2023-03-17T01:51:10.667Z,16.80
2023-03-17T01:53:40.159Z,13.00
2023-03-17T01:56:09.712Z,9.60
2023-03-17T01:58:38.093Z,10.00
2023-03-17T02:01:07.566Z,9.00
2023-03-17T02:03:35.777Z,5.50
2023-03-17T02:06:05.550Z,12.00
2023-03-17T02:08:33.691Z,10.40
2023-03-17T02:11:03.614Z,6.00
2023-03-17T02:13:33.067Z,13.25
2023-03-17T02:16:01.141Z,9.50
2023-03-17T02:18:29.299Z,12.00
2023-03-17T02:21:15.681Z,8.50
2023-03-17T02:23:45.587Z,4.00
2023-03-17T02:26:13.937Z,1.00
2023-03-17T02:28:46.108Z,9.25
2023-03-17T02:31:14.707Z,7.00
2023-03-17T02:33:42.847Z,4.40
2023-03-17T02:36:11.788Z,7.40
2023-03-17T02:38:39.941Z,1.80
2023-03-17T02:41:09.931Z,4.50
2023-03-17T02:43:38.484Z,3.00
2023-03-17T02:46:07.661Z,3.00
2023-03-17T02:48:38.206Z,7.00
2023-03-17T02:51:06.647Z,0.00
2023-03-17T02:53:34.929Z,6.80
2023-03-17T02:56:02.971Z,8.25
2023-03-17T02:58:32.559Z,4.00
2023-03-17T03:01:00.662Z,9.00
2023-03-17T03:03:28.687Z,6.00
2023-03-17T03:05:57.853Z,3.60
2023-03-17T03:08:27.240Z,3.75
2023-03-17T03:10:56.187Z,7.80
2023-03-17T03:13:24.370Z,9.00
2023-03-17T03:15:53.895Z,3.00
2023-03-17T03:18:22.059Z,9.00
2023-03-17T03:20:50.226Z,7.00
2023-03-17T03:23:18.817Z,9.20
2023-03-17T03:25:47.180Z,7.40
2023-03-17T03:28:15.407Z,6.00
2023-03-17T03:30:44.809Z,7.80
2023-03-17T03:33:15.211Z,8.00
2023-03-17T03:35:44.479Z,6.40
2023-03-17T03:38:13.480Z,6.60
2023-03-17T03:40:41.649Z,10.50
2023-03-17T03:43:21.811Z,4.00
2023-03-17T03:45:51.550Z,6.20
2023-03-17T03:48:21.890Z,3.60
2023-03-17T03:50:50.092Z,6.40
2023-03-17T03:53:18.344Z,6.75
2023-03-17T03:55:46.861Z,2.20
2023-03-17T03:58:15.583Z,3.50
2023-03-17T04:00:43.798Z,6.25
2023-03-17T04:03:11.867Z,2.00
2023-03-17T04:05:41.400Z,4.00
2023-03-17T04:08:09.486Z,3.00
2023-03-17T04:10:37.575Z,1.50
2023-03-17T04:13:05.825Z,1.00
2023-03-17T04:15:34.014Z,0.00
2023-03-17T04:18:02.761Z,0.00
2023-03-17T04:20:31.022Z,5.50
2023-03-17T04:23:00.661Z,0.50
2023-03-17T04:25:28.852Z,1.00
2023-03-17T04:27:57.024Z,0.75
2023-03-17T04:30:26.580Z,3.00
2023-03-17T04:32:54.742Z,3.00
2023-03-17T04:35:23.748Z,3.50
2023-03-17T04:37:52.255Z,3.25
2023-03-17T04:40:21.877Z,4.00
2023-03-17T04:42:50.037Z,4.00
2023-03-17T04:45:18.207Z,4.00
2023-03-17T04:47:46.564Z,3.50
2023-03-17T04:50:15.151Z,4.00
2023-03-17T04:52:43.708Z,3.25
2023-03-17T04:55:13.261Z,4.50
2023-03-17T04:57:42.844Z,3.50
2023-03-17T05:00:12.918Z,3.00
2023-03-17T05:02:41.365Z,0.25
2023-03-17T05:05:10.075Z,3.00
2023-03-17T05:07:38.256Z,3.00
2023-03-17T05:10:06.807Z,1.00
2023-03-17T05:12:34.975Z,1.00
2023-03-17T05:15:05.826Z,0.00
2023-03-17T05:17:34.001Z,1.00
2023-03-17T05:20:02.279Z,1.00
2023-03-17T05:22:31.352Z,0.50
2023-03-17T05:24:59.446Z,0.00
2023-03-17T05:27:27.579Z,2.00
2023-03-17T05:29:55.782Z,1.00
2023-03-17T05:32:25.880Z,0.75
2023-03-17T05:34:54.025Z,0.00
2023-03-17T05:37:22.827Z,0.50
2023-03-17T05:39:51.212Z,0.00
2023-03-17T05:42:19.512Z,0.00
2023-03-17T05:44:47.773Z,1.00
2023-03-17T05:47:18.183Z,1.00
2023-03-17T05:49:47.695Z,0.00
2023-03-17T05:52:15.799Z,0.00
2023-03-17T05:54:44.870Z,0.00
2023-03-17T05:57:13.165Z,0.00
2023-03-17T05:59:41.514Z,1.00
2023-03-17T06:02:11.412Z,0.00
2023-03-17T06:04:40.441Z,1.00
2023-03-17T06:07:10.600Z,1.50
2023-03-17T06:09:38.917Z,0.00
2023-03-17T06:12:07.953Z,0.00
2023-03-17T06:14:36.323Z,0.50
2023-03-17T06:17:04.826Z,1.00
2023-03-17T06:19:32.941Z,1.00
2023-03-17T06:22:01.272Z,1.00
2023-03-17T06:24:31.000Z,1.50
2023-03-17T06:26:59.267Z,0.75
2023-03-17T06:29:28.629Z,0.75
2023-03-17T06:31:59.547Z,0.00
2023-03-17T06:34:29.550Z,1.00
2023-03-17T06:36:57.761Z,0.00
2023-03-17T06:39:26.930Z,0.00
2023-03-17T06:41:56.546Z,0.00
2023-03-17T06:44:25.304Z,0.50
2023-03-17T06:46:53.450Z,1.67
2023-03-17T06:49:21.964Z,0.00
2023-03-17T06:51:50.407Z,0.00
2023-03-17T06:54:19.104Z,1.00
2023-03-17T06:56:47.167Z,0.00
2023-03-17T06:59:16.674Z,0.25
2023-03-17T07:01:46.942Z,0.00
2023-03-17T07:04:15.144Z,0.00
2023-03-17T07:06:43.341Z,1.50
2023-03-17T07:09:11.722Z,0.00
2023-03-17T07:11:39.938Z,0.00
2023-03-17T07:14:08.190Z,0.00
2023-03-17T07:16:37.832Z,0.50
2023-03-17T07:19:07.435Z,0.00
2023-03-17T07:21:35.880Z,1.00
2023-03-17T07:24:04.780Z,0.00
2023-03-17T07:26:33.134Z,0.00
2023-03-17T07:29:01.876Z,0.00
2023-03-17T07:31:30.164Z,0.00
2023-03-17T07:33:59.887Z,0.00
2023-03-17T07:36:28.039Z,0.00
2023-03-17T07:38:56.706Z,0.00
2023-03-17T07:41:25.287Z,0.00
2023-03-17T07:43:53.425Z,0.00
2023-03-17T07:46:21.687Z,0.00
2023-03-17T07:48:49.867Z,1.50
2023-03-17T07:51:21.291Z,1.00
2023-03-17T07:53:50.217Z,0.00
2023-03-17T07:56:18.984Z,0.00
2023-03-17T07:58:47.359Z,0.00
2023-03-17T08:01:15.511Z,0.00
2023-03-17T08:03:43.695Z,0.00
2023-03-17T08:06:12.150Z,0.00
2023-03-17T08:08:41.966Z,1.00
2023-03-17T08:11:10.583Z,0.00
2023-03-17T08:13:38.792Z,0.00
2023-03-17T08:16:07.399Z,1.00
2023-03-17T08:18:35.590Z,0.00
2023-03-17T08:21:03.909Z,0.00
2023-03-17T08:23:32.543Z,0.00
2023-03-17T08:26:03.353Z,0.00
2023-03-17T08:28:32.705Z,0.00
2023-03-17T08:31:12.444Z,0.00
2023-03-17T08:33:41.216Z,0.00
2023-03-17T08:36:11.078Z,1.00
2023-03-17T08:38:39.169Z,0.50
2023-03-17T08:41:10.305Z,0.50
2023-03-17T08:43:38.691Z,0.00
2023-03-17T08:46:09.023Z,0.00
2023-03-17T08:48:37.595Z,0.00
2023-03-17T08:51:05.915Z,0.00
2023-03-17T08:53:35.172Z,0.00
2023-03-17T08:56:04.794Z,0.00
2023-03-17T08:58:34.654Z,0.00
2023-03-17T09:01:03.587Z,0.00
2023-03-17T09:03:32.940Z,0.00
2023-03-17T09:06:01.249Z,0.00
2023-03-17T09:08:29.569Z,0.00
2023-03-17T09:10:57.924Z,0.00
2023-03-17T09:13:26.069Z,0.00
2023-03-17T09:15:56.324Z,0.00
2023-03-17T09:18:24.704Z,0.00
2023-03-17T09:20:52.835Z,0.00
2023-03-17T09:23:21.033Z,0.00
2023-03-17T09:25:49.254Z,0.00
2023-03-17T09:28:17.567Z,0.00
2023-03-17T09:30:45.942Z,0.00
2023-03-17T09:33:15.799Z,0.00
2023-03-17T09:35:43.990Z,0.00
2023-03-17T09:38:12.957Z,0.00
2023-03-17T09:40:45.490Z,0.00
2023-03-17T09:43:18.790Z,0.00
2023-03-17T09:45:47.279Z,0.00
2023-03-17T09:48:30.191Z,0.00
2023-03-17T09:51:01.986Z,0.00
2023-03-17T09:53:34.319Z,0.00
2023-03-17T09:56:04.219Z,0.00
2023-03-17T09:58:33.611Z,0.00
2023-03-17T10:01:03.289Z,0.00
2023-03-17T10:03:31.469Z,0.00
2023-03-17T10:06:10.967Z,0.00
2023-03-17T10:08:43.315Z,0.00
2023-03-17T10:11:15.404Z,0.00
2023-03-17T10:13:49.874Z,0.00
2023-03-17T10:16:20.087Z,0.00
2023-03-17T10:18:51.719Z,0.00
2023-03-17T10:21:24.461Z,0.00
2023-03-17T10:23:54.548Z,0.00
2023-03-17T10:26:27.954Z,0.00
2023-03-17T10:28:56.249Z,0.00
2023-03-17T10:31:29.318Z,0.00
2023-03-17T10:33:58.561Z,0.00
2023-03-17T10:36:38.765Z,0.00
2023-03-17T10:39:08.268Z,0.00
2023-03-17T10:41:37.835Z,0.00
2023-03-17T10:44:09.593Z,0.00
2023-03-17T10:46:39.220Z,0.00
2023-03-17T10:49:09.602Z,0.00
2023-03-17T10:51:40.780Z,0.00
2023-03-17T10:54:10.443Z,0.00
2023-03-17T10:56:39.738Z,0.00
2023-03-17T10:59:09.010Z,0.00
2023-03-17T11:01:38.686Z,0.00
2023-03-17T11:04:22.064Z,0.00
2023-03-17T11:06:52.608Z,0.00
2023-03-17T11:09:21.702Z,0.50
2023-03-17T11:11:50.558Z,0.00
2023-03-17T11:14:19.497Z,0.00
2023-03-17T11:16:54.038Z,0.00
2023-03-17T11:19:27.285Z,0.00
2023-03-17T11:22:01.496Z,0.00
2023-03-17T11:24:33.508Z,0.00
2023-03-17T11:27:03.934Z,0.00
2023-03-17T11:29:43.184Z,0.00
2023-03-17T11:32:21.546Z,0.00
2023-03-17T11:34:58.708Z,0.00
2023-03-17T11:37:33.579Z,0.00
2023-03-17T11:40:06.645Z,0.00
2023-03-17T11:42:39.094Z,0.00
2023-03-17T11:45:13.251Z,0.00
2023-03-17T11:47:47.749Z,0.00
2023-03-17T11:50:22.793Z,0.00
2023-03-17T11:52:58.466Z,0.00
2023-03-17T11:55:27.964Z,0.00
2023-03-17T11:57:58.126Z,0.00
2023-03-17T12:00:31.424Z,0.00
2023-03-17T12:03:01.199Z,0.00
2023-03-17T12:05:31.735Z,0.00
2023-03-17T12:08:03.412Z,0.00
2023-03-17T12:10:36.476Z,0.00
2023-03-17T12:13:07.282Z,0.00
2023-03-17T12:15:37.714Z,0.00
2023-03-17T12:18:08.186Z,0.00
2023-03-17T12:20:42.753Z,1.00
2023-03-17T12:23:17.624Z,0.00
2023-03-17T12:25:51.046Z,0.25
2023-03-17T12:28:23.097Z,1.00
2023-03-17T12:30:54.731Z,0.00
2023-03-17T12:33:26.230Z,0.00
2023-03-17T12:35:54.604Z,0.00
2023-03-17T12:38:26.880Z,0.50
2023-03-17T12:41:12.303Z,0.00
2023-03-17T12:43:43.745Z,0.00
2023-03-17T12:46:22.459Z,0.00
2023-03-17T12:49:00.572Z,0.00
2023-03-17T12:51:46.336Z,0.00
2023-03-17T12:54:20.412Z,0.00
2023-03-17T12:56:50.524Z,0.00
2023-03-17T12:59:19.736Z,0.00
2023-03-17T13:01:54.662Z,0.25
2023-03-17T13:04:27.063Z,0.00
2023-03-17T13:06:59.816Z,0.00
2023-03-17T13:09:35.938Z,0.00
2023-03-17T13:12:05.370Z,0.50
2023-03-17T13:14:43.361Z,0.00
2023-03-17T13:17:31.896Z,0.00
2023-03-17T13:20:11.248Z,0.00
2023-03-17T13:22:40.631Z,0.00
2023-03-17T13:25:27.729Z,0.25
2023-03-17T13:28:01.291Z,0.00
2023-03-17T13:30:59.906Z,1.00
2023-03-17T13:33:31.804Z,0.00
2023-03-17T13:36:10.256Z,0.00
2023-03-17T13:39:17.702Z,0.00
2023-03-17T13:42:12.065Z,0.00
2023-03-17T13:44:58.108Z,0.25
2023-03-17T13:47:28.642Z,0.00
2023-03-17T13:50:02.270Z,0.00
2023-03-17T13:52:33.550Z,0.00
2023-03-17T13:55:05.507Z,0.00
2023-03-17T13:57:38.453Z,0.00
2023-03-17T14:00:18.492Z,0.00
2023-03-17T14:02:49.211Z,0.00
2023-03-17T14:05:23.308Z,0.75
2023-03-17T14:07:54.306Z,0.00
2023-03-17T14:10:23.360Z,1.00
2023-03-17T14:12:56.515Z,0.00
2023-03-17T14:15:29.424Z,0.00
2023-03-17T14:18:01.985Z,0.00
2023-03-17T14:20:30.849Z,1.00
2023-03-17T14:23:01.517Z,0.00
2023-03-17T14:25:33.520Z,0.00
2023-03-17T14:28:05.536Z,0.00
2023-03-17T14:30:34.538Z,0.50
2023-03-17T14:33:05.666Z,0.00
2023-03-17T14:35:35.134Z,0.00
2023-03-17T14:38:04.367Z,0.50
2023-03-17T14:40:37.009Z,0.00
2023-03-17T14:43:06.905Z,0.00
2023-03-17T14:45:45.243Z,0.00
2023-03-17T14:48:14.741Z,0.00
2023-03-17T14:50:50.694Z,0.50
2023-03-17T14:53:19.038Z,0.50
2023-03-17T14:55:47.282Z,0.00
2023-03-17T14:58:23.550Z,0.50
2023-03-17T15:00:55.669Z,0.00
2023-03-17T15:03:25.984Z,1.00
2023-03-17T15:06:04.595Z,0.25
2023-03-17T15:08:46.236Z,0.50
2023-03-17T15:11:20.175Z,1.25
2023-03-17T15:13:50.159Z,1.00
2023-03-17T15:16:20.103Z,0.25
2023-03-17T15:18:48.629Z,0.00
2023-03-17T15:21:24.188Z,0.00
2023-03-17T15:23:52.545Z,0.50
2023-03-17T15:26:24.949Z,1.00
2023-03-17T15:28:54.626Z,0.00
2023-03-17T15:31:28.445Z,0.25
2023-03-17T15:33:57.707Z,1.00
2023-03-17T15:36:32.731Z,0.00
2023-03-17T15:39:01.938Z,0.25
2023-03-17T15:41:30.184Z,0.50
2023-03-17T15:43:59.859Z,0.25
2023-03-17T15:46:31.161Z,0.00
2023-03-17T15:48:59.639Z,1.00
2023-03-17T15:51:27.913Z,1.50
2023-03-17T15:53:56.323Z,0.50
2023-03-17T15:56:24.472Z,1.00
2023-03-17T15:58:52.796Z,0.00
2023-03-17T16:01:22.455Z,0.50
2023-03-17T16:03:50.961Z,0.50
2023-03-17T16:06:19.750Z,1.00
2023-03-17T16:08:48.305Z,0.50
2023-03-17T16:11:18.799Z,2.00
2023-03-17T16:13:47.994Z,0.00
2023-03-17T16:16:18.493Z,0.50
2023-03-17T16:18:49.056Z,1.00
2023-03-17T16:21:18.001Z,1.00
2023-03-17T16:23:46.581Z,0.50
2023-03-17T16:26:16.783Z,1.00
2023-03-17T16:28:46.085Z,0.50
2023-03-17T16:31:19.356Z,2.00
2023-03-17T16:33:49.231Z,1.50
2023-03-17T16:36:18.309Z,0.00
2023-03-17T16:38:46.734Z,0.75
2023-03-17T16:41:17.377Z,1.50
2023-03-17T16:43:46.307Z,1.00
2023-03-17T16:46:15.139Z,0.00
2023-03-17T16:48:43.260Z,1.00
2023-03-17T16:51:12.924Z,2.00
2023-03-17T16:53:43.471Z,2.50
2023-03-17T16:56:15.138Z,1.00
2023-03-17T16:58:43.527Z,1.00
2023-03-17T17:01:13.642Z,0.75
2023-03-17T17:03:41.781Z,1.50
2023-03-17T17:06:11.182Z,0.50
2023-03-17T17:08:40.803Z,1.00
2023-03-17T17:11:08.944Z,1.00
2023-03-17T17:13:37.532Z,1.00
2023-03-17T17:16:06.053Z,1.00
2023-03-17T17:18:36.478Z,0.25
2023-03-17T17:21:07.326Z,0.00
2023-03-17T17:23:35.679Z,1.00
2023-03-17T17:26:05.514Z,0.00
2023-03-17T17:28:33.801Z,1.50
2023-03-17T17:31:02.157Z,2.50
2023-03-17T17:33:30.465Z,1.00
2023-03-17T17:35:58.662Z,2.50
2023-03-17T17:38:27.737Z,3.00
2023-03-17T17:40:56.850Z,1.00
2023-03-17T17:43:27.051Z,0.25
2023-03-17T17:45:55.884Z,1.00
2023-03-17T17:48:25.136Z,1.00
2023-03-17T17:50:53.981Z,1.50
2023-03-17T17:53:22.176Z,1.00
2023-03-17T17:55:51.829Z,1.00
2023-03-17T17:58:22.437Z,0.75
2023-03-17T18:00:52.773Z,3.25
2023-03-17T18:03:24.602Z,2.00
2023-03-17T18:05:53.416Z,2.50
2023-03-17T18:08:21.871Z,2.00
2023-03-17T18:10:51.993Z,0.50
2023-03-17T18:13:20.649Z,1.00
2023-03-17T18:15:49.156Z,2.50
2023-03-17T18:18:18.755Z,3.00
2023-03-17T18:20:47.006Z,0.00
2023-03-17T18:23:16.210Z,2.50
2023-03-17T18:25:44.406Z,1.00
2023-03-17T18:28:12.716Z,2.00
2023-03-17T18:30:41.035Z,1.00
2023-03-17T18:33:11.809Z,1.00
2023-03-17T18:35:41.585Z,0.75
2023-03-17T18:38:09.794Z,2.00
2023-03-17T18:40:38.132Z,0.50
2023-03-17T18:43:06.383Z,1.50
2023-03-17T18:45:34.570Z,3.00
2023-03-17T18:48:02.860Z,2.00
2023-03-17T18:50:31.223Z,3.00
2023-03-17T18:53:01.201Z,1.00
2023-03-17T18:55:29.564Z,3.00
2023-03-17T18:57:58.284Z,1.50
2023-03-17T19:00:27.121Z,4.00
2023-03-17T19:02:55.364Z,1.00
2023-03-17T19:05:24.700Z,3.75
2023-03-17T19:07:53.073Z,3.40
2023-03-17T19:10:22.756Z,2.00
2023-03-17T19:12:52.242Z,3.00
2023-03-17T19:15:20.856Z,0.25
2023-03-17T19:17:50.467Z,1.00
2023-03-17T19:20:19.004Z,2.20
2023-03-17T19:22:47.583Z,0.25
2023-03-17T19:25:16.677Z,2.60
2023-03-17T19:27:46.262Z,3.50
2023-03-17T19:30:14.778Z,3.00
2023-03-17T19:32:43.016Z,3.00
2023-03-17T19:35:11.787Z,2.60
2023-03-17T19:37:40.114Z,2.60
2023-03-17T19:40:10.388Z,3.60
2023-03-17T19:42:38.703Z,2.20
2023-03-17T19:45:09.352Z,3.00
2023-03-17T19:47:37.521Z,1.00
2023-03-17T19:50:07.287Z,0.40
2023-03-17T19:52:35.606Z,2.20
2023-03-17T19:55:05.992Z,2.20
2023-03-17T19:57:36.964Z,3.40
2023-03-17T20:00:09.087Z,3.00
2023-03-17T20:02:39.767Z,1.00
2023-03-17T20:05:08.669Z,3.00
2023-03-17T20:07:37.325Z,3.40
2023-03-17T20:10:06.736Z,2.20
2023-03-17T20:12:37.653Z,2.60
2023-03-17T20:15:07.016Z,3.00
2023-03-17T20:17:35.404Z,1.00
2023-03-17T20:20:05.237Z,1.40
2023-03-17T20:22:33.689Z,3.20
2023-03-17T20:25:01.764Z,3.00
2023-03-17T20:27:32.253Z,2.60
2023-03-17T20:30:00.382Z,1.00
2023-03-17T20:32:30.097Z,3.40
2023-03-17T20:34:58.493Z,3.00
2023-03-17T20:37:28.494Z,0.40
2023-03-17T20:39:57.596Z,0.00
2023-03-17T20:42:25.974Z,1.00
2023-03-17T20:44:54.065Z,2.60
2023-03-17T20:47:22.176Z,1.00
2023-03-17T20:49:50.821Z,2.60
2023-03-17T20:52:18.871Z,3.00
2023-03-17T20:54:48.761Z,0.00
2023-03-17T20:57:16.926Z,2.60
2023-03-17T20:59:45.342Z,1.40
2023-03-17T21:02:17.593Z,3.00
2023-03-17T21:04:47.760Z,3.40
2023-03-17T21:07:16.447Z,1.40
2023-03-17T21:09:45.091Z,4.00
2023-03-17T21:12:15.596Z,5.20
2023-03-17T21:14:43.824Z,4.40
2023-03-17T21:17:12.184Z,1.00
2023-03-17T21:19:40.702Z,5.20
2023-03-17T21:22:08.815Z,1.80
2023-03-17T21:24:38.523Z,4.00
2023-03-17T21:27:07.816Z,1.00
2023-03-17T21:29:37.362Z,4.00
2023-03-17T21:32:06.984Z,0.40
2023-03-17T21:34:35.726Z,3.00
2023-03-17T21:37:04.158Z,1.40
2023-03-17T21:39:32.882Z,4.00
2023-03-17T21:42:02.215Z,1.00
2023-03-17T21:44:32.477Z,4.00
2023-03-17T21:47:03.178Z,3.40
2023-03-17T21:49:31.249Z,2.60
2023-03-17T21:51:59.309Z,4.00
2023-03-17T21:54:27.353Z,3.00
2023-03-17T21:56:55.533Z,1.00
2023-03-17T21:59:23.811Z,1.80
2023-03-17T22:01:53.209Z,0.40
2023-03-17T22:04:22.698Z,1.40
2023-03-17T22:06:52.467Z,3.00
2023-03-17T22:09:20.764Z,1.80
2023-03-17T22:11:49.830Z,3.20
2023-03-17T22:14:20.782Z,1.40
2023-03-17T22:16:48.991Z,0.00
2023-03-17T22:19:20.662Z,3.20
2023-03-17T22:21:51.917Z,2.20
2023-03-17T22:24:20.195Z,4.00
2023-03-17T22:26:49.092Z,1.40
2023-03-17T22:29:17.429Z,1.00
2023-03-17T22:31:45.594Z,3.20
2023-03-17T22:34:14.029Z,3.20
2023-03-17T22:36:42.207Z,3.00
2023-03-17T22:39:12.003Z,1.00
2023-03-17T22:41:40.434Z,1.00
2023-03-17T22:44:09.494Z,4.00
2023-03-17T22:46:37.862Z,1.80
2023-03-17T22:49:06.867Z,0.00
2023-03-17T22:51:35.574Z,2.60
2023-03-17T22:54:03.970Z,2.60
2023-03-17T22:56:33.481Z,1.80
2023-03-17T22:59:02.051Z,3.00
2023-03-17T23:01:30.231Z,0.20
2023-03-17T23:03:58.355Z,1.00
2023-03-17T23:06:26.512Z,1.80
2023-03-17T23:08:54.627Z,2.20
2023-03-17T23:11:24.170Z,1.40
2023-03-17T23:13:54.348Z,3.00
2023-03-17T23:16:23.162Z,0.00
2023-03-17T23:18:51.685Z,1.00
2023-03-17T23:21:21.938Z,3.00
2023-03-17T23:23:50.113Z,3.00
2023-03-17T23:26:18.545Z,1.00
2023-03-17T23:28:47.721Z,1.00
2023-03-17T23:31:19.495Z,0.80
2023-03-17T23:33:47.902Z,3.00
2023-03-17T23:36:17.170Z,1.00
2023-03-17T23:38:45.988Z,3.00
2023-03-17T23:41:14.707Z,1.00
2023-03-17T23:43:44.122Z,1.00
2023-03-17T23:46:13.951Z,0.40
2023-03-17T23:48:43.752Z,3.20
2023-03-17T23:51:13.045Z,1.40
2023-03-17T23:53:41.927Z,0.00
2023-03-17T23:56:11.509Z,1.00
2023-03-17T23:58:39.781Z,1.40
